Flight Track Log - Related Links

Times and Time Zones

All times are in EDT time to prevent confusion due to time zone crossing. See the SWA3236 flight status page for this flight to view local times or setup timezone preferences in your user account.

Time Position Orientation Groundspeed Altitude Reporting Facility
EDT Latitude Longitude Course Direction KTS MPH feet Rate Location/Type
09:41AM 28.0000 -82.5333 360° North 151 174 1,600  Level Tampa TRACON
09:42AM 28.0667 -82.5333 360° North 224 258 3,600 2,339 Climbing Tampa TRACON
09:44AM 28.1872 -82.5817 341° North 285 328 8,500 2,836 Climbing Jacksonville Center
09:45AM 28.2603 -82.6239 333° Northwest 285 328 11,400 2,967 Climbing Jacksonville Center
09:47AM 28.4336 -82.7272 332° Northwest 337 388 17,400 2,867 Climbing Jacksonville Center
09:48AM 28.5233 -82.7839 331° Northwest 348 400 20,000 2,700 Climbing Jacksonville Center
09:49AM 28.6217 -82.8217 341° North 361 415 22,800 2,300 Climbing Jacksonville Center
09:50AM 28.7300 -82.8475 348° North 377 434 24,600 1,600 Climbing Jacksonville Center
09:51AM 28.8428 -82.8761 347° North 384 442 26,000 1,500 Climbing Jacksonville Center
09:52AM 28.9472 -82.8997 349° North 413 475 27,600 1,600 Climbing Jacksonville Center
09:53AM 29.0642 -82.9283 348° North 423 487 29,200 1,500 Climbing Jacksonville Center
09:54AM 29.1892 -82.9592 348° North 435 501 30,600 1,550 Climbing Jacksonville Center
09:55AM 29.3125 -82.9878 349° North 440 506 32,300 1,650 Climbing Jacksonville Center
09:56AM 29.4333 -83.0142 349° North 449 517 33,900 850 Climbing Jacksonville Center
09:57AM 29.5586 -83.0431 349° North 449 517 34,000 300 Climbing Jacksonville Center
09:58AM 29.6775 -83.0886 342° North 449 517 34,500 1,000 Climbing Jacksonville Center
09:59AM 29.7861 -83.1367 339° North 432 497 36,000 750 Climbing Jacksonville Center
10:00AM 29.8925 -83.1850 339° North 418 481 36,000  Level Jacksonville Center
10:01AM 30.0008 -83.2381 337° Northwest 418 481 36,000  Level Jacksonville Center
10:02AM 30.1094 -83.2886 338° Northwest 413 475 36,000  Level Jacksonville Center
10:03AM 30.2197 -83.3397 338° Northwest 418 481 36,000  Level Jacksonville Center
10:04AM 30.3239 -83.3858 339° North 413 475 36,000  Level Jacksonville Center
10:05AM 30.4325 -83.4394 337° Northwest 413 475 36,000  Level Jacksonville Center
10:06AM 30.5408 -83.4883 339° North 413 475 36,000  Level Jacksonville Center
10:07AM 30.6511 -83.5397 338° Northwest 418 481 36,000  Level Jacksonville Center
10:08AM 30.7614 -83.5936 337° Northwest 418 481 36,000  Level Jacksonville Center
10:09AM 30.8739 -83.6453 338° Northwest 418 481 36,000  Level Jacksonville Center
10:10AM 30.9822 -83.6994 337° Northwest 418 481 36,000  Level Jacksonville Center
10:11AM 31.0947 -83.7539 337° Northwest 423 487 36,000  Level Jacksonville Center
10:12AM 31.2050 -83.8083 337° Northwest 423 487 36,000  Level Jacksonville Center
10:13AM 31.3172 -83.8606 338° Northwest 428 493 36,000  Level Jacksonville Center
10:14AM 31.4522 -83.9269 337° Northwest 438 504 36,000  Level Atlanta Center
10:15AM 31.5692 -83.9731 341° North 433 498 36,000  Level Atlanta Center
10:16AM 31.6903 -83.9997 349° North 433 498 36,000  Level Atlanta Center
10:17AM 31.8239 -84.0292 349° North 438 504 36,000  Level Atlanta Center
10:18AM 31.9428 -84.0536 350° North 438 504 36,000  Level Atlanta Center
10:19AM 32.0639 -84.0806 349° North 438 504 36,000  Level Atlanta Center
10:20AM 32.1850 -84.1075 349° North 438 504 36,000  Level Atlanta Center
10:21AM 32.3039 -84.1347 349° North 432 497 36,000  Level Atlanta Center
10:22AM 32.4250 -84.1619 349° North 432 497 36,000  Level Atlanta Center
10:23AM 32.5439 -84.1892 349° North 432 497 36,000  Level Atlanta Center
10:24AM 32.6650 -84.2139 350° North 432 497 36,000  Level Atlanta Center
10:25AM 32.7817 -84.2439 348° North 432 497 36,000  Level Atlanta Center
10:26AM 32.8986 -84.2714 349° North 432 497 36,000  Level Atlanta Center
10:27AM 33.0175 -84.2989 349° North 432 497 36,000  Level Atlanta Center
10:28AM 33.1344 -84.3342 346° North 427 491 36,000  Level Atlanta Center
10:29AM 33.2428 -84.3889 337° Northwest 422 486 36,000  Level Atlanta Center
10:30AM 33.3489 -84.4417 337° Northwest 416 479 36,000  Level Atlanta Center
10:31AM 33.4553 -84.4919 338° Northwest 416 479 36,000  Level Atlanta Center
10:32AM 33.5678 -84.5200 348° North 416 479 36,000  Level Atlanta Center
10:33AM 33.6742 -84.5456 349° North 412 474 36,000  Level Atlanta Center
10:34AM 33.7869 -84.5636 352° North 412 474 36,000  Level Atlanta Center
10:35AM 33.9017 -84.5919 348° North 412 474 36,000  Level Atlanta Center
10:36AM 34.0183 -84.6203 349° North 412 474 36,000  Level Atlanta Center
10:37AM 34.1497 -84.6486 350° North 412 474 36,000  Level Atlanta Center
10:38AM 34.2644 -84.6722 350° North 420 483 36,000  Level Atlanta Center
10:39AM 34.3789 -84.6983 349° North 420 483 36,000  Level Atlanta Center
10:40AM 34.4936 -84.7242 349° North 415 478 36,000  Level Atlanta Center
10:41AM 34.6083 -84.7506 349° North 415 478 36,000  Level Atlanta Center
10:42AM 34.7083 -84.7767 348° North 408 470 36,000  Level Atlanta Center
10:43AM 34.8250 -84.8003 351° North 414 476 36,000  Level Atlanta Center
10:44AM 34.9417 -84.8267 349° North 414 476 36,000  Level Atlanta Center
10:45AM 35.0564 -84.8533 349° North 414 476 36,000  Level Atlanta Center
10:46AM 35.1731 -84.8797 350° North 414 476 36,000  Level Atlanta Center
10:47AM 35.2856 -84.9064 349° North 414 476 36,000  Level Atlanta Center
10:48AM 35.3981 -84.9331 349° North 409 471 36,000  Level Atlanta Center
10:49AM 35.5103 -84.9572 350° North 409 471 36,000  Level Atlanta Center
10:51AM 35.7175 -85.0042 350° North 414 476 36,000  Level Indianapolis Center
10:52AM 35.8311 -85.0306 349° North 414 476 36,000  Level Indianapolis Center
10:53AM 35.9436 -85.0567 349° North 413 475 36,000  Level Indianapolis Center
10:54AM 36.0628 -85.0850 349° North 412 474 36,000  Level Indianapolis Center
10:55AM 36.1747 -85.1114 349° North 409 471 36,000  Level Indianapolis Center
10:56AM 36.2867 -85.1372 349° North 409 471 36,000  Level Indianapolis Center
10:57AM 36.3989 -85.1636 349° North 409 471 36,000  Level Indianapolis Center
10:58AM 36.5089 -85.1906 349° North 408 470 36,000  Level Indianapolis Center
10:59AM 36.6211 -85.2158 350° North 407 468 36,000  Level Indianapolis Center
11:00AM 36.7533 -85.2492 349° North 407 468 36,000 -97 Level Indianapolis Center
11:01AM 36.8644 -85.2750 349° North 407 468 35,800 -581 Descending Indianapolis Center
11:02AM 36.9775 -85.3019 349° North 407 468 34,800 -976 Descending Indianapolis Center
11:03AM 37.0917 -85.3286 349° North 411 473 33,800 -927 Descending Indianapolis Center
11:04AM 37.2061 -85.3569 349° North 415 478 32,900 -871 Descending Indianapolis Center
11:05AM 37.3200 -85.3853 349° North 418 481 32,000 -435 Descending Indianapolis Center
11:06AM 37.4344 -85.4142 349° North 418 481 32,000  Level Indianapolis Center
11:07AM 37.5725 -85.4456 350° North 418 481 32,000  Level Indianapolis Center
11:08AM 37.6711 -85.4722 348° North 418 481 32,000  Level Indianapolis Center
11:09AM 37.7872 -85.4997 349° North 418 481 32,000  Level Indianapolis Center
11:10AM 37.9264 -85.5333 349° North 419 482 32,000 -435 Level Indianapolis Center
11:11AM 38.0419 -85.5636 348° North 421 484 31,100 -976 Descending Indianapolis Center
11:12AM 38.1575 -85.5850 352° North 420 483 30,000 -1,024 Descending Indianapolis Center
11:13AM 38.2736 -85.5975 355° North 420 483 29,000 -726 Descending Indianapolis Center
11:15AM 38.3878 -85.6114 355° North 417 480 28,500 -1,548 Descending Indianapolis Center
11:16AM 38.5028 -85.6256 354° North 416 479 25,800 -2,177 Descending Indianapolis Center
11:17AM 38.6100 -85.6392 354° North 396 456 24,000 -1,645 Descending Indianapolis Center
11:18AM 38.7236 -85.6606 352° North 371 427 22,400 -1,887 Descending Indianapolis Center
11:19AM 38.8239 -85.6778 352° North 367 422 20,100 -2,226 Descending Indianapolis Center
11:20AM 38.9231 -85.6947 352° North 365 420 17,800 -2,081 Descending Indianapolis Center
11:21AM 39.0183 -85.7131 351° North 353 406 15,800 -1,902 Descending Indianapolis Center
11:22AM 39.1256 -85.7319 352° North 332 382 13,900 -1,366 Descending Indianapolis Center
11:23AM 39.2133 -85.7481 352° North 323 372 13,000 -968 Descending Indianapolis Center
11:24AM 39.2992 -85.7644 352° North 320 368 11,900 -968 Descending Indianapolis Center
11:25AM 39.3644 -85.8289 323° Northwest 304 350 11,000 -919 Descending Indianapolis Center
11:26AM 39.4256 -85.9017 317° Northwest 304 350 10,000 -774 Descending Indianapolis Center
11:27AM 39.4847 -85.9717 318° Northwest 296 341 9,400 -968 Descending Indianapolis Center
11:28AM 39.5486 -86.0481 317° Northwest 269 310 8,000 -677 Descending Indianapolis Center
11:29AM 39.6019 -86.1114 318° Northwest 264 304 8,000  Level Indianapolis Center
11:30AM 39.6594 -86.1425 337° Northwest 247 284 8,000 -387 Level Indianapolis Center
11:31AM 39.7175 -86.1108 90° East 234 269 7,200 -968 Descending Indianapolis Center
11:32AM 39.7725 -86.0750 27° Northeast 228 262 6,000 -1,258 Descending Indianapolis Center
11:33AM 39.7173 -86.2947 155° Southeast  Level Estimated
11:33AM 39.8383 -86.0650 North 233 268 4,600  Level Indianapolis Center
11:34AM 39.8536 -86.1317 287° West 232 267 3,300 -927 Descending Indianapolis Center
11:35AM 39.8100 -86.1881 225° Southwest 227 261 2,700 -581 Descending Indianapolis Center
11:36AM 39.7742 -86.2339 225° Southwest 202 232 2,100 -629 Descending Indianapolis Center
11:37AM 39.7472 -86.2681 224° Southwest 164 189 1,400 -581 Descending Indianapolis Center
11:38AM 39.7233 -86.2992 225° Southwest 147 169 900 -484 Descending Indianapolis Center
11:40AM 39.7173 -86.2947 90° East  Level Estimated
11:43AM 39.7167 -86.2833 90° East  Level FlightAware Approximate

Login

Don't have an account? Register now (free) for customized features, flight alerts, and more!